Time;durP1;ratioP1;P1;durP2;ratioP2;P2;SDS_P1;SDS_P2;PMS_P1;PMS_P2;Temp;Humidity;BMP_temperature;BMP_pressure;BME280_temperature;BME280_humidity;BME280_pressure;Samples;Min_cycle;Max_cycle;Signal;HPM_P1;HPM_P2
2021/04/12 00:00:13;;;;;;;9.47;5.60;;;2.10;99.90;;;;;;5050154;28;20182;-66
2021/04/12 00:02:47;;;;;;;12.93;6.23;;;2.10;99.90;;;;;;5051648;28;20545;-66
2021/04/12 00:05:57;;;;;;;13.57;5.30;;;2.10;99.90;;;;;;5051868;28;20170;-66
2021/04/12 00:08:46;;;;;;;6.27;4.63;;;2.20;99.90;;;;;;4987470;28;20250;-66
2021/04/12 00:11:23;;;;;;;4.87;3.83;;;2.10;99.90;;;;;;5031748;28;20254;-66
2021/04/12 00:14:27;;;;;;;4.53;4.10;;;2.20;99.90;;;;;;5034714;28;20245;-66
2021/04/12 00:17:15;;;;;;;4.63;3.60;;;2.20;99.90;;;;;;5009341;28;20218;-66
2021/04/12 00:20:10;;;;;;;9.33;4.17;;;2.20;99.90;;;;;;5049438;28;20557;-66
2021/04/12 00:22:38;;;;;;;6.97;4.27;;;2.20;99.90;;;;;;4979628;28;20194;-66
2021/04/12 00:25:40;;;;;;;6.93;4.40;;;2.20;99.90;;;;;;5051239;28;20191;-66
2021/04/12 00:28:20;;;;;;;8.67;4.47;;;2.20;99.90;;;;;;5039764;28;20698;-66
2021/04/12 00:31:03;;;;;;;5.17;3.80;;;2.20;99.90;;;;;;5049518;28;20187;-66
2021/04/12 00:33:35;;;;;;;7.07;4.13;;;2.20;99.90;;;;;;5051282;28;20198;-65
2021/04/12 00:36:23;;;;;;;3.87;3.47;;;2.20;99.90;;;;;;5050947;28;20182;-66
2021/04/12 00:39:10;;;;;;;10.53;4.23;;;2.20;99.90;;;;;;5050858;28;20179;-66
2021/04/12 00:42:06;;;;;;;7.40;4.40;;;2.20;99.90;;;;;;5050717;28;20224;-66
2021/04/12 00:45:12;;;;;;;4.43;4.03;;;2.20;99.90;;;;;;5051342;28;20663;-66
2021/04/12 00:47:49;;;;;;;5.67;3.97;;;2.20;99.90;;;;;;5050854;28;20205;-66
2021/04/12 00:50:33;;;;;;;10.43;4.27;;;2.20;99.90;;;;;;5049734;28;20678;-66
2021/04/12 00:53:32;;;;;;;6.83;4.00;;;2.20;99.90;;;;;;5050769;28;20556;-66
2021/04/12 00:56:07;;;;;;;7.53;3.80;;;2.20;99.90;;;;;;5051383;28;20178;-65
2021/04/12 00:58:39;;;;;;;6.53;4.07;;;2.20;99.90;;;;;;5051076;28;20267;-65
2021/04/12 01:01:11;;;;;;;11.97;4.73;;;2.20;99.90;;;;;;5050919;28;20644;-66
2021/04/12 01:03:51;;;;;;;4.00;3.60;;;2.20;99.90;;;;;;5049455;28;20256;-65
2021/04/12 01:06:39;;;;;;;4.27;3.77;;;2.20;99.90;;;;;;5050835;28;20179;-65
2021/04/12 01:09:11;;;;;;;10.07;4.87;;;2.20;99.90;;;;;;5049553;28;20206;-65
2021/04/12 01:11:45;;;;;;;8.27;4.57;;;2.10;99.90;;;;;;5050711;28;20175;-65
2021/04/12 01:14:23;;;;;;;9.73;4.67;;;2.10;99.90;;;;;;5050818;28;20221;-65
2021/04/12 01:16:51;;;;;;;7.60;4.33;;;2.10;99.90;;;;;;5050774;28;20206;-65
2021/04/12 01:19:48;;;;;;;9.03;4.80;;;2.00;99.90;;;;;;5050857;28;20258;-65
2021/04/12 01:22:41;;;;;;;7.57;4.53;;;2.00;99.90;;;;;;5050711;28;20182;-65
2021/04/12 01:25:15;;;;;;;6.47;4.30;;;1.90;99.90;;;;;;5051053;28;20179;-66
2021/04/12 01:28:18;;;;;;;8.10;4.60;;;1.90;99.90;;;;;;5050363;28;20281;-65
2021/04/12 01:31:02;;;;;;;12.33;5.63;;;1.90;99.90;;;;;;5050909;28;20275;-66
2021/04/12 01:33:42;;;;;;;5.93;4.83;;;1.80;99.90;;;;;;5049566;28;20290;-66
2021/04/12 01:36:32;;;;;;;7.37;5.00;;;1.80;99.90;;;;;;5054374;28;20197;-66
2021/04/12 01:39:08;;;;;;;8.43;4.97;;;1.70;99.90;;;;;;5052958;28;20191;-66
2021/04/12 01:42:01;;;;;;;9.67;5.20;;;1.70;99.90;;;;;;5054182;28;20564;-66
2021/04/12 01:44:52;;;;;;;9.33;6.30;;;1.70;99.90;;;;;;5034654;28;20179;-66
2021/04/12 01:47:37;;;;;;;10.47;6.37;;;1.60;99.90;;;;;;5037586;28;20207;-66
2021/04/12 01:50:27;;;;;;;13.43;6.17;;;1.60;99.90;;;;;;5054199;28;20372;-66
2021/04/12 01:53:30;;;;;;;9.40;5.70;;;1.50;99.90;;;;;;5052626;28;20660;-66
2021/04/12 01:56:04;;;;;;;9.27;6.37;;;1.50;99.90;;;;;;5054504;28;20189;-66
2021/04/12 01:58:51;;;;;;;7.50;6.50;;;1.40;99.90;;;;;;5053925;28;20189;-66
2021/04/12 02:01:58;;;;;;;11.80;6.17;;;1.40;99.90;;;;;;5053110;28;20210;-66
2021/04/12 02:04:45;;;;;;;11.33;7.30;;;1.40;99.90;;;;;;5053599;28;20682;-66
2021/04/12 02:07:43;;;;;;;11.00;7.30;;;1.30;99.90;;;;;;5053541;28;20207;-66
2021/04/12 02:10:31;;;;;;;12.17;7.43;;;1.30;99.90;;;;;;5043249;28;20195;-68
2021/04/12 02:13:25;;;;;;;14.23;7.97;;;1.30;99.90;;;;;;5059848;28;20268;-68
2021/04/12 02:16:05;;;;;;;16.27;8.43;;;1.40;99.90;;;;;;5061850;28;20200;-70
2021/04/12 02:19:09;;;;;;;13.67;8.10;;;1.30;99.90;;;;;;5061004;28;20205;-68
2021/04/12 02:22:16;;;;;;;11.30;7.37;;;1.30;99.90;;;;;;5038904;28;20197;-70
2021/04/12 02:25:16;;;;;;;13.90;8.10;;;1.30;99.90;;;;;;5058608;28;20536;-66
2021/04/12 02:28:16;;;;;;;11.57;7.80;;;1.30;99.90;;;;;;5033714;28;20203;-66
2021/04/12 02:30:44;;;;;;;13.53;8.33;;;1.30;99.90;;;;;;5034053;28;20179;-66
2021/04/12 02:33:22;;;;;;;11.47;8.67;;;1.30;99.90;;;;;;5035892;28;20199;-66
2021/04/12 02:36:14;;;;;;;16.10;9.93;;;1.40;99.90;;;;;;5054227;28;20202;-66
2021/04/12 02:38:42;;;;;;;12.00;9.43;;;1.40;99.90;;;;;;5052258;28;20319;-66
2021/04/12 02:41:30;;;;;;;20.47;10.17;;;1.40;99.90;;;;;;5052323;28;20186;-66
2021/04/12 02:44:14;;;;;;;15.97;8.77;;;1.50;99.90;;;;;;5051991;28;20209;-67
2021/04/12 02:47:08;;;;;;;20.33;9.97;;;1.50;99.90;;;;;;5051663;28;20635;-66
2021/04/12 02:50:01;;;;;;;21.63;10.27;;;1.60;99.90;;;;;;5052072;28;20170;-66
2021/04/12 02:52:30;;;;;;;19.70;9.73;;;1.60;99.90;;;;;;5052430;28;20274;-64
2021/04/12 02:55:15;;;;;;;15.37;9.53;;;1.70;99.90;;;;;;5052439;28;20183;-63
2021/04/12 02:58:03;;;;;;;15.83;9.27;;;1.60;99.90;;;;;;5052520;28;20205;-64
2021/04/12 03:00:44;;;;;;;17.87;9.70;;;1.60;99.90;;;;;;5052680;28;20265;-64
2021/04/12 03:03:16;;;;;;;14.87;9.60;;;1.50;99.90;;;;;;5054153;28;20175;-65
2021/04/12 03:06:16;;;;;;;14.33;9.80;;;1.50;99.90;;;;;;5054963;28;20262;-64
2021/04/12 03:09:09;;;;;;;15.80;9.13;;;1.40;99.90;;;;;;5035191;28;20183;-64
2021/04/12 03:11:50;;;;;;;12.23;8.83;;;1.30;99.90;;;;;;5039826;28;20560;-64
2021/04/12 03:14:28;;;;;;;16.17;9.20;;;1.30;99.90;;;;;;5054493;28;20202;-65
2021/04/12 03:17:13;;;;;;;19.23;8.47;;;1.20;99.90;;;;;;5054896;28;20206;-66
2021/04/12 03:20:16;;;;;;;16.70;9.30;;;1.20;99.90;;;;;;5053540;28;20174;-66
2021/04/12 03:23:10;;;;;;;13.13;9.03;;;1.20;99.90;;;;;;5053367;28;20594;-65
2021/04/12 03:26:23;;;;;;;16.83;9.60;;;1.20;99.90;;;;;;5052083;28;20182;-65
2021/04/12 03:29:26;;;;;;;9.80;7.80;;;1.20;99.90;;;;;;5011176;28;20275;-65
2021/04/12 03:32:09;;;;;;;10.23;7.33;;;1.10;99.90;;;;;;5051301;28;20647;-66
2021/04/12 03:34:56;;;;;;;12.17;7.63;;;1.10;99.90;;;;;;5052878;28;20206;-65
2021/04/12 03:37:45;;;;;;;14.67;8.27;;;1.10;99.90;;;;;;5053033;28;20205;-65
2021/04/12 03:40:24;;;;;;;11.40;7.97;;;1.00;99.90;;;;;;5051728;28;20175;-65
2021/04/12 03:42:56;;;;;;;16.27;7.60;;;1.00;99.90;;;;;;5053577;28;20182;-64
2021/04/12 03:45:33;;;;;;;11.77;7.60;;;1.00;99.90;;;;;;5053653;28;20182;-64
2021/04/12 03:48:29;;;;;;;9.43;6.50;;;1.00;99.90;;;;;;5053106;28;20218;-64
2021/04/12 03:51:08;;;;;;;8.13;6.80;;;1.00;99.90;;;;;;5052403;28;20190;-64
2021/04/12 03:53:50;;;;;;;14.37;7.53;;;0.90;99.90;;;;;;5053779;28;20199;-64
2021/04/12 03:56:16;;;;;;;9.83;6.83;;;0.90;99.90;;;;;;5052291;28;20183;-65
2021/04/12 03:58:57;;;;;;;14.87;7.90;;;0.80;99.90;;;;;;5053712;28;20181;-65
2021/04/12 04:01:59;;;;;;;11.30;7.50;;;0.80;99.90;;;;;;5053572;28;20251;-65
2021/04/12 04:04:46;;;;;;;15.20;7.43;;;0.80;99.90;;;;;;5053364;28;20198;-65
2021/04/12 04:07:30;;;;;;;8.77;6.97;;;0.80;99.90;;;;;;5033417;28;20203;-65
2021/04/12 04:10:20;;;;;;;13.77;7.07;;;0.70;99.90;;;;;;5035373;28;20172;-65
2021/04/12 04:13:24;;;;;;;14.70;7.53;;;0.80;99.90;;;;;;5052151;28;20202;-65
2021/04/12 04:16:21;;;;;;;12.73;8.33;;;0.70;99.90;;;;;;5053547;28;20626;-65
2021/04/12 04:18:54;;;;;;;12.67;8.23;;;0.70;99.90;;;;;;5054136;28;20491;-65
2021/04/12 04:21:35;;;;;;;12.97;7.93;;;0.70;99.90;;;;;;5053194;28;20170;-65
2021/04/12 04:24:49;;;;;;;10.27;8.10;;;0.70;99.90;;;;;;5051405;28;20179;-65
2021/04/12 04:27:51;;;;;;;15.70;10.13;;;0.70;99.90;;;;;;5033761;28;20222;-65
2021/04/12 04:30:31;;;;;;;18.60;10.57;;;0.70;99.90;;;;;;5051030;28;20178;-65
2021/04/12 04:33:34;;;;;;;10.10;7.93;;;0.70;99.90;;;;;;5051322;28;20208;-65
2021/04/12 04:36:24;;;;;;;16.40;9.83;;;0.70;99.90;;;;;;5050998;28;20182;-65
2021/04/12 04:39:25;;;;;;;15.97;11.30;;;0.70;99.90;;;;;;5051362;28;20190;-65
2021/04/12 04:42:07;;;;;;;15.33;10.90;;;0.70;99.90;;;;;;5031333;28;20178;-64
2021/04/12 04:44:51;;;;;;;20.77;11.87;;;0.70;99.90;;;;;;5034203;28;20182;-64
2021/04/12 04:47:59;;;;;;;19.07;12.50;;;0.70;99.90;;;;;;5051434;28;20610;-63
2021/04/12 04:50:40;;;;;;;17.10;12.27;;;0.70;99.90;;;;;;5050967;28;20723;-64
2021/04/12 04:53:50;;;;;;;18.40;13.80;;;0.70;99.90;;;;;;5051294;28;20668;-65
2021/04/12 04:56:28;;;;;;;20.47;12.80;;;0.70;99.90;;;;;;5051248;28;20174;-65
2021/04/12 04:59:24;;;;;;;17.90;13.10;;;0.70;99.90;;;;;;5051102;28;20214;-65
2021/04/12 05:02:20;;;;;;;20.97;14.33;;;0.80;99.90;;;;;;5050566;28;20178;-65
2021/04/12 05:05:10;;;;;;;15.27;12.90;;;0.80;99.90;;;;;;5050750;28;20686;-65
2021/04/12 05:08:13;;;;;;;17.90;13.80;;;0.80;99.90;;;;;;5051158;28;20225;-65
2021/04/12 05:10:51;;;;;;;18.27;13.83;;;0.90;99.90;;;;;;5053661;28;20533;-65
2021/04/12 05:13:25;;;;;;;21.73;14.83;;;0.90;99.90;;;;;;5055105;28;20206;-65
2021/04/12 05:16:14;;;;;;;19.03;13.43;;;0.90;99.90;;;;;;5054562;28;20173;-64
2021/04/12 05:19:14;;;;;;;20.30;14.27;;;0.90;99.90;;;;;;5055138;28;20182;-65
2021/04/12 05:21:57;;;;;;;17.73;13.77;;;1.00;99.90;;;;;;5034660;28;20226;-65
2021/04/12 05:24:44;;;;;;;28.10;14.23;;;0.90;99.90;;;;;;5039217;28;20252;-65
2021/04/12 05:27:37;;;;;;;18.20;13.67;;;1.00;99.90;;;;;;5054746;28;20234;-65
2021/04/12 05:30:24;;;;;;;19.27;13.57;;;1.00;99.90;;;;;;5054100;28;20190;-65
2021/04/12 05:33:09;;;;;;;21.07;15.30;;;1.00;99.90;;;;;;5054581;28;20206;-64
2021/04/12 05:36:22;;;;;;;21.97;14.67;;;1.10;99.90;;;;;;5054394;28;20170;-65
2021/04/12 05:39:26;;;;;;;20.27;15.97;;;1.20;99.90;;;;;;5044940;28;20586;-65
2021/04/12 05:42:32;;;;;;;21.80;16.07;;;1.30;99.90;;;;;;5054201;28;20220;-65
2021/04/12 05:45:34;;;;;;;20.67;14.70;;;1.40;99.90;;;;;;5054066;28;20179;-65
2021/04/12 05:48:08;;;;;;;23.27;15.63;;;1.50;99.90;;;;;;5051897;28;20800;-65
2021/04/12 05:50:37;;;;;;;19.93;15.33;;;1.60;99.90;;;;;;5053821;28;20195;-65
2021/04/12 05:53:21;;;;;;;22.70;15.77;;;1.60;99.90;;;;;;5053698;28;20202;-64
2021/04/12 05:56:24;;;;;;;22.30;15.37;;;1.80;99.90;;;;;;5051610;28;20182;-65
2021/04/12 05:59:27;;;;;;;24.13;16.13;;;1.90;99.90;;;;;;5053717;28;20201;-65
2021/04/12 06:02:05;;;;;;;25.23;18.33;;;2.00;99.90;;;;;;5053177;28;20178;-65
2021/04/12 06:04:37;;;;;;;19.10;12.60;;;2.20;99.90;;;;;;5052999;28;20372;-65
2021/04/12 06:07:39;;;;;;;19.60;15.27;;;2.30;99.90;;;;;;5053512;28;20195;-65
2021/04/12 06:10:26;;;;;;;19.33;15.57;;;2.60;99.90;;;;;;5053250;28;20185;-65
2021/04/12 06:13:08;;;;;;;17.20;13.43;;;3.10;99.90;;;;;;5053255;28;20686;-64
2021/04/12 06:16:04;;;;;;;16.10;12.30;;;3.50;99.90;;;;;;5053762;28;20182;-65
2021/04/12 06:18:59;;;;;;;17.10;11.10;;;3.70;99.90;;;;;;5053118;28;20190;-65
2021/04/12 06:21:46;;;;;;;10.63;9.53;;;3.80;99.90;;;;;;5053240;28;20254;-65
2021/04/12 06:24:49;;;;;;;11.77;9.30;;;3.80;99.90;;;;;;5053605;28;20182;-65
2021/04/12 06:27:40;;;;;;;13.20;10.17;;;3.80;99.90;;;;;;5053312;28;20213;-65
2021/04/12 06:30:17;;;;;;;14.97;8.97;;;4.00;99.90;;;;;;5033114;28;20206;-65
2021/04/12 06:33:06;;;;;;;12.47;8.53;;;4.30;99.90;;;;;;5043968;28;20189;-65
2021/04/12 06:35:59;;;;;;;12.77;8.67;;;4.40;99.90;;;;;;5053453;28;20233;-64
2021/04/12 06:38:55;;;;;;;12.53;7.97;;;4.60;99.90;;;;;;5053199;28;20258;-65
2021/04/12 06:41:36;;;;;;;10.13;7.83;;;4.50;99.90;;;;;;5052873;28;20179;-65
2021/04/12 06:44:04;;;;;;;11.67;8.27;;;4.50;99.90;;;;;;5053030;28;20171;-65
2021/04/12 06:46:47;;;;;;;11.03;8.17;;;4.50;99.90;;;;;;5052776;28;20306;-65
2021/04/12 06:49:39;;;;;;;9.43;7.50;;;4.50;99.90;;;;;;5053220;28;20171;-65
2021/04/12 06:52:30;;;;;;;11.97;7.40;;;4.40;99.90;;;;;;5052309;28;20648;-65
2021/04/12 06:55:07;;;;;;;10.43;8.07;;;4.20;99.90;;;;;;5052910;28;20636;-65
2021/04/12 06:57:55;;;;;;;8.50;6.50;;;4.20;99.90;;;;;;5052384;28;20209;-65
2021/04/12 07:00:45;;;;;;;7.50;6.80;;;4.00;99.90;;;;;;5052608;28;20170;-65
2021/04/12 07:03:22;;;;;;;10.70;8.13;;;3.80;99.90;;;;;;5032864;28;20225;-64
2021/04/12 07:05:56;;;;;;;8.97;8.07;;;3.80;99.90;;;;;;5052150;28;20174;-64
2021/04/12 07:08:34;;;;;;;9.73;8.10;;;3.90;99.90;;;;;;5052708;28;20202;-65
2021/04/12 07:11:31;;;;;;;10.20;8.67;;;4.00;99.90;;;;;;5051094;28;20178;-65
2021/04/12 07:14:11;;;;;;;12.40;9.40;;;4.10;99.90;;;;;;5052002;28;20670;-65
2021/04/12 07:17:10;;;;;;;16.57;9.47;;;4.30;99.90;;;;;;5052397;28;20191;-65
2021/04/12 07:19:57;;;;;;;11.93;9.00;;;4.30;99.90;;;;;;5052242;28;20643;-65
2021/04/12 07:22:44;;;;;;;15.57;10.43;;;4.10;99.90;;;;;;5038431;28;20174;-65
2021/04/12 07:25:57;;;;;;;15.20;10.40;;;4.20;99.90;;;;;;5052482;28;20182;-65
2021/04/12 07:29:05;;;;;;;11.07;9.33;;;4.50;99.90;;;;;;5009730;28;20200;-65
2021/04/12 07:31:49;;;;;;;11.00;9.80;;;4.70;99.90;;;;;;5052009;28;20181;-64
2021/04/12 07:34:43;;;;;;;17.43;9.50;;;4.90;99.90;;;;;;5051981;28;20207;-65
2021/04/12 07:37:30;;;;;;;10.60;8.27;;;5.10;99.90;;;;;;5052013;28;20201;-65
2021/04/12 07:40:29;;;;;;;12.53;9.20;;;5.10;99.90;;;;;;5051638;28;20178;-65
2021/04/12 07:43:19;;;;;;;11.03;8.43;;;4.90;99.90;;;;;;5051504;28;20237;-65
2021/04/12 07:49:29;;;;;;;17.73;10.33;;;4.80;99.90;;;;;;5051730;28;20186;-64
2021/04/12 07:52:23;;;;;;;13.33;11.23;;;4.80;99.90;;;;;;5051534;28;20179;-64
2021/04/12 07:55:09;;;;;;;16.20;12.40;;;4.80;99.90;;;;;;5031890;28;20598;-65
2021/04/12 07:57:43;;;;;;;14.03;11.23;;;5.00;99.90;;;;;;5035695;28;20644;-65
2021/04/12 08:00:27;;;;;;;16.63;13.33;;;5.10;99.90;;;;;;5051410;28;20202;-65
2021/04/12 08:03:14;;;;;;;14.27;12.77;;;5.40;99.90;;;;;;5051424;28;20210;-65
2021/04/12 08:06:13;;;;;;;14.53;12.77;;;5.80;99.90;;;;;;5051142;28;20189;-65
2021/04/12 08:08:51;;;;;;;14.90;11.20;;;6.20;99.90;;;;;;5050506;28;20179;-65
2021/04/12 08:11:44;;;;;;;17.87;13.47;;;6.50;99.90;;;;;;5051440;28;20257;-65
2021/04/12 08:14:18;;;;;;;15.27;12.50;;;6.60;99.90;;;;;;5051154;28;20198;-65
2021/04/12 08:17:11;;;;;;;12.80;10.73;;;6.70;99.90;;;;;;5049924;28;20220;-65
2021/04/12 08:20:04;;;;;;;16.53;13.53;;;6.80;99.90;;;;;;5051516;28;20198;-65
2021/04/12 08:22:53;;;;;;;12.23;10.93;;;7.00;99.90;;;;;;5051511;28;20183;-65
2021/04/12 08:25:38;;;;;;;14.07;11.17;;;7.20;99.90;;;;;;5051644;28;20174;-65
2021/04/12 08:28:53;;;;;;;13.30;11.60;;;7.10;99.90;;;;;;5050544;28;20281;-65
2021/04/12 08:32:09;;;;;;;13.43;12.03;;;6.90;99.90;;;;;;5051237;28;20202;-65
2021/04/12 08:35:12;;;;;;;11.47;10.27;;;7.60;99.90;;;;;;5038851;28;20215;-65
2021/04/12 08:38:16;;;;;;;11.63;10.43;;;8.40;99.90;;;;;;5051462;28;20196;-65
2021/04/12 08:41:14;;;;;;;14.50;11.30;;;8.70;99.90;;;;;;5050809;28;20185;-65
2021/04/12 08:44:06;;;;;;;14.97;11.30;;;8.60;99.90;;;;;;5051383;28;20162;-65
2021/04/12 08:47:27;;;;;;;12.77;10.80;;;9.10;99.90;;;;;;5054342;28;20727;-65
2021/04/12 08:50:15;;;;;;;11.33;10.23;;;9.10;99.90;;;;;;5032535;28;20254;-65
2021/04/12 08:53:16;;;;;;;11.27;9.70;;;9.50;99.90;;;;;;5053732;28;20186;-65
2021/04/12 08:55:48;;;;;;;14.50;9.57;;;10.00;99.90;;;;;;5055135;28;20167;-65
2021/04/12 08:58:14;;;;;;;11.17;9.93;;;10.10;99.90;;;;;;5054387;28;20203;-65
2021/04/12 09:00:42;;;;;;;9.73;8.13;;;10.10;99.90;;;;;;5049335;28;20253;-65
2021/04/12 09:03:32;;;;;;;11.83;9.13;;;10.10;99.90;;;;;;5053615;28;20190;-65
2021/04/12 09:05:58;;;;;;;10.90;8.43;;;10.10;99.90;;;;;;5049590;28;20257;-65
2021/04/12 09:08:29;;;;;;;12.70;9.67;;;9.50;99.90;;;;;;5047415;28;20198;-65
2021/04/12 09:11:32;;;;;;;13.30;9.40;;;8.80;99.90;;;;;;5054128;28;20186;-65
2021/04/12 09:14:35;;;;;;;11.20;9.33;;;8.50;99.90;;;;;;5053373;28;20217;-65
2021/04/12 09:17:08;;;;;;;9.73;7.83;;;8.20;99.90;;;;;;5048331;28;20667;-64
2021/04/12 09:19:47;;;;;;;9.97;8.03;;;8.40;99.90;;;;;;5054256;28;20229;-65
2021/04/12 09:22:18;;;;;;;8.50;7.53;;;8.40;99.90;;;;;;5054517;28;20549;-64
2021/04/12 09:24:56;;;;;;;10.43;7.37;;;8.10;99.90;;;;;;5054539;28;20222;-65
2021/04/12 09:27:43;;;;;;;9.30;7.80;;;7.90;99.90;;;;;;5054386;28;20234;-65
2021/04/12 09:30:18;;;;;;;10.70;8.13;;;7.80;99.90;;;;;;5053820;28;20281;-65
2021/04/12 09:32:55;;;;;;;9.17;8.10;;;7.90;99.90;;;;;;5054282;28;20236;-65
2021/04/12 09:35:21;;;;;;;7.37;6.57;;;8.00;99.90;;;;;;5054549;28;20232;-65
2021/04/12 09:38:12;;;;;;;7.57;6.70;;;7.90;99.90;;;;;;5053116;28;20603;-65
2021/04/12 09:41:08;;;;;;;9.20;7.30;;;7.90;99.90;;;;;;5052513;28;20522;-65
2021/04/12 09:44:07;;;;;;;6.97;5.47;;;7.80;99.90;;;;;;5053907;28;20202;-65
2021/04/12 09:46:52;;;;;;;10.80;5.93;;;7.60;99.90;;;;;;5051459;28;20203;-65
2021/04/12 09:49:38;;;;;;;6.73;6.10;;;7.40;99.90;;;;;;5053824;28;20217;-64
2021/04/12 09:52:23;;;;;;;7.80;5.70;;;7.30;99.90;;;;;;5046351;28;20273;-64
2021/04/12 09:55:25;;;;;;;5.73;4.47;;;7.10;99.90;;;;;;5053292;28;20320;-64
2021/04/12 09:58:12;;;;;;;5.87;4.40;;;7.20;99.90;;;;;;5053566;28;20194;-64
2021/04/12 10:00:43;;;;;;;3.70;3.20;;;7.20;99.90;;;;;;5053740;28;20454;-64
2021/04/12 10:03:47;;;;;;;5.30;3.77;;;7.10;99.90;;;;;;5053438;28;20179;-65
2021/04/12 10:06:31;;;;;;;4.83;3.30;;;7.10;99.90;;;;;;5053220;28;20763;-64
2021/04/12 10:09:21;;;;;;;4.30;2.70;;;7.20;99.90;;;;;;5042087;28;20183;-65
2021/04/12 10:12:08;;;;;;;7.03;3.77;;;7.70;99.90;;;;;;5034994;28;20187;-65
2021/04/12 10:15:06;;;;;;;4.90;2.60;;;8.40;99.90;;;;;;5053084;28;20206;-65
2021/04/12 10:17:47;;;;;;;11.13;3.60;;;9.30;99.90;;;;;;5039197;28;20387;-65
2021/04/12 10:20:27;;;;;;;6.13;2.70;;;10.00;99.90;;;;;;5032811;28;20176;-65
2021/04/12 10:22:59;;;;;;;4.67;3.30;;;9.60;99.90;;;;;;5048081;28;20236;-65
2021/04/12 10:25:54;;;;;;;3.70;1.67;;;9.60;99.90;;;;;;5052443;28;20185;-65
2021/04/12 10:28:32;;;;;;;5.53;2.73;;;10.40;99.90;;;;;;5052922;28;20289;-65
2021/04/12 10:31:28;;;;;;;3.50;2.53;;;11.30;99.90;;;;;;5033178;28;20614;-65
2021/04/12 10:34:14;;;;;;;3.57;1.43;;;12.00;99.90;;;;;;5032725;28;20277;-65
2021/04/12 10:36:53;;;;;;;7.23;3.60;;;12.30;99.90;;;;;;5037821;28;20199;-65
2021/04/12 10:39:30;;;;;;;3.73;1.80;;;11.90;99.90;;;;;;5053428;28;20170;-65
2021/04/12 10:42:06;;;;;;;2.63;2.00;;;11.60;99.90;;;;;;5052200;28;20178;-65
2021/04/12 10:44:40;;;;;;;3.97;1.90;;;11.80;99.90;;;;;;5052941;28;20545;-65
2021/04/12 10:47:38;;;;;;;3.63;1.80;;;11.30;99.90;;;;;;5053133;28;20220;-65
2021/04/12 10:50:09;;;;;;;3.80;2.03;;;9.90;99.90;;;;;;5023338;28;20191;-65
2021/04/12 10:53:03;;;;;;;3.83;2.40;;;8.60;99.90;;;;;;5044933;28;20186;-64
2021/04/12 10:55:42;;;;;;;5.70;2.70;;;7.70;99.90;;;;;;5052937;28;20587;-64
2021/04/12 10:58:45;;;;;;;2.63;1.97;;;6.80;99.90;;;;;;5052440;28;20191;-64
2021/04/12 11:01:21;;;;;;;6.37;3.33;;;5.50;99.90;;;;;;5052765;28;20205;-65
2021/04/12 11:04:02;;;;;;;4.17;3.07;;;5.00;99.90;;;;;;5052415;28;20186;-64
2021/04/12 11:06:54;;;;;;;7.07;3.90;;;4.70;99.90;;;;;;5052252;28;20285;-64
2021/04/12 11:09:37;;;;;;;3.07;2.87;;;4.60;99.90;;;;;;5052349;28;20182;-65
2021/04/12 11:12:31;;;;;;;3.53;3.23;;;4.80;99.90;;;;;;5051730;28;20668;-65
2021/04/12 11:15:05;;;;;;;7.83;3.70;;;4.90;99.90;;;;;;5052363;28;20668;-65
2021/04/12 11:17:48;;;;;;;3.67;3.33;;;5.20;99.90;;;;;;5052142;28;20222;-65
2021/04/12 11:20:31;;;;;;;3.93;3.47;;;5.50;99.90;;;;;;5051996;28;20766;-65
2021/04/12 11:23:05;;;;;;;3.73;3.33;;;5.90;99.90;;;;;;5045912;28;20262;-65
2021/04/12 11:25:35;;;;;;;4.33;3.10;;;6.60;99.90;;;;;;5032790;28;20170;-65
2021/04/12 11:28:08;;;;;;;3.50;2.63;;;7.50;99.90;;;;;;5047896;28;20632;-65
2021/04/12 11:30:49;;;;;;;2.33;1.90;;;8.60;99.90;;;;;;5051854;28;20267;-65
2021/04/12 11:33:47;;;;;;;2.77;2.10;;;9.80;99.90;;;;;;5047690;28;20238;-65
2021/04/12 11:36:36;;;;;;;2.30;1.80;;;11.30;99.90;;;;;;5042988;28;20189;-65
2021/04/12 11:39:09;;;;;;;1.90;1.80;;;12.20;99.90;;;;;;5052273;28;20561;-65
2021/04/12 11:41:50;;;;;;;1.80;1.70;;;13.30;99.90;;;;;;5051487;28;20178;-65
2021/04/12 11:44:35;;;;;;;2.43;1.90;;;13.80;99.90;;;;;;5051272;28;20303;-65
2021/04/12 11:47:22;;;;;;;2.13;1.80;;;13.10;99.90;;;;;;5051779;28;20229;-65
2021/04/12 11:50:09;;;;;;;3.03;2.10;;;12.20;99.90;;;;;;5051440;28;20190;-65
2021/04/12 11:52:58;;;;;;;4.07;3.67;;;11.10;99.90;;;;;;5051836;28;20269;-65
2021/04/12 11:55:42;;;;;;;2.97;2.67;;;9.80;99.90;;;;;;5050548;28;20248;-65
2021/04/12 11:58:25;;;;;;;3.40;3.10;;;7.50;99.90;;;;;;5051657;28;20565;-65
2021/04/12 12:01:03;;;;;;;4.53;4.00;;;5.60;99.90;;;;;;5051179;28;20174;-64
2021/04/12 12:03:43;;;;;;;4.93;3.30;;;4.80;99.90;;;;;;5051556;28;20277;-65
2021/04/12 12:06:33;;;;;;;4.93;4.00;;;4.50;99.90;;;;;;5051445;28;20175;-65
2021/04/12 12:09:07;;;;;;;3.27;2.90;;;4.50;99.90;;;;;;5051193;28;20191;-65
2021/04/12 12:11:47;;;;;;;4.40;4.00;;;4.70;99.90;;;;;;5051466;28;20257;-65
2021/04/12 12:14:28;;;;;;;5.57;3.37;;;5.00;99.90;;;;;;5051267;28;20214;-65
2021/04/12 12:16:56;;;;;;;6.57;4.50;;;5.10;99.90;;;;;;5051350;28;20296;-65
2021/04/12 12:19:49;;;;;;;5.20;4.40;;;5.70;99.90;;;;;;5051111;28;20206;-65
2021/04/12 12:22:14;;;;;;;5.10;4.13;;;6.60;99.90;;;;;;5050437;28;20175;-65
2021/04/12 12:24:58;;;;;;;2.90;2.40;;;7.40;99.90;;;;;;5051302;28;20551;-65
2021/04/12 12:27:34;;;;;;;4.83;3.00;;;7.20;99.90;;;;;;5051103;28;20194;-65
2021/04/12 12:30:24;;;;;;;2.20;2.00;;;6.90;99.90;;;;;;5030965;28;20187;-65
2021/04/12 12:33:11;;;;;;;2.10;1.90;;;6.90;99.90;;;;;;5035877;28;20192;-65
2021/04/12 12:35:55;;;;;;;2.60;2.20;;;6.80;99.90;;;;;;5051346;28;20178;-65
2021/04/12 12:38:55;;;;;;;1.80;1.70;;;7.10;99.90;;;;;;5051001;28;20623;-65
2021/04/12 12:41:25;;;;;;;1.70;1.60;;;7.40;99.90;;;;;;5050947;28;20167;-65
2021/04/12 12:43:59;;;;;;;2.57;2.03;;;7.90;99.90;;;;;;5050901;28;20210;-65
2021/04/12 12:46:28;;;;;;;3.17;1.50;;;8.30;99.90;;;;;;5051149;28;20182;-66
2021/04/12 12:49:01;;;;;;;1.70;1.60;;;8.90;99.90;;;;;;5050850;28;20191;-65
2021/04/12 12:51:38;;;;;;;2.87;2.40;;;8.90;99.90;;;;;;5050847;28;20174;-65
2021/04/12 12:54:42;;;;;;;5.27;2.70;;;8.90;99.90;;;;;;5050611;28;20213;-65
2021/04/12 12:57:35;;;;;;;2.57;2.17;;;9.40;99.90;;;;;;5008283;28;20214;-65
2021/04/12 13:00:07;;;;;;;4.43;2.93;;;9.70;99.90;;;;;;5008705;28;20184;-65
2021/04/12 13:02:36;;;;;;;4.00;2.50;;;9.70;99.90;;;;;;5022515;28;20660;-65
2021/04/12 13:05:21;;;;;;;3.90;2.70;;;9.70;99.90;;;;;;5031126;28;20780;-65
2021/04/12 13:07:49;;;;;;;5.73;2.40;;;9.60;99.90;;;;;;5048153;28;20198;-65
2021/04/12 13:10:15;;;;;;;6.13;3.47;;;8.80;99.90;;;;;;5051001;28;20163;-65
2021/04/12 13:12:43;;;;;;;5.43;4.20;;;8.20;99.90;;;;;;5050526;28;20555;-65
2021/04/12 13:15:13;;;;;;;5.43;3.17;;;7.50;99.90;;;;;;5050732;28;20636;-65
2021/04/12 13:17:40;;;;;;;4.90;3.30;;;6.90;99.90;;;;;;5050652;28;20214;-65
2021/04/12 13:20:20;;;;;;;10.20;5.97;;;6.70;99.90;;;;;;5049592;28;20194;-65
2021/04/12 13:22:53;;;;;;;3.73;2.93;;;6.60;99.90;;;;;;5030882;28;20163;-65
2021/04/12 13:25:24;;;;;;;3.40;2.70;;;6.60;99.90;;;;;;5043273;28;20261;-65
2021/04/12 13:27:56;;;;;;;4.17;3.00;;;6.50;99.90;;;;;;5050766;28;20640;-65
2021/04/12 13:30:29;;;;;;;4.77;3.27;;;6.40;99.90;;;;;;5051010;28;20175;-65
2021/04/12 13:33:08;;;;;;;3.33;3.03;;;6.40;99.90;;;;;;5054724;28;20671;-65
2021/04/12 13:35:41;;;;;;;3.27;2.90;;;6.70;99.90;;;;;;5054233;28;20174;-65
2021/04/12 13:38:22;;;;;;;5.77;3.20;;;6.80;99.90;;;;;;5054484;28;20217;-64
2021/04/12 13:41:06;;;;;;;3.17;2.87;;;7.00;99.90;;;;;;5053806;28;20178;-65
2021/04/12 13:43:33;;;;;;;4.13;3.30;;;7.20;99.90;;;;;;5054616;28;20648;-65
2021/04/12 13:46:19;;;;;;;6.80;3.57;;;7.40;99.90;;;;;;5053912;28;20252;-65
2021/04/12 13:49:02;;;;;;;4.83;3.20;;;8.10;99.90;;;;;;5054192;28;20181;-65
2021/04/12 13:51:47;;;;;;;3.43;2.67;;;9.10;99.90;;;;;;5053790;28;20246;-65
2021/04/12 13:54:38;;;;;;;3.50;2.30;;;10.10;99.90;;;;;;5052964;28;20199;-65
2021/04/12 13:57:09;;;;;;;2.93;2.00;;;10.70;99.90;;;;;;5053545;28;20191;-65
2021/04/12 13:59:39;;;;;;;2.17;1.93;;;11.60;99.90;;;;;;5054022;28;20249;-65
2021/04/12 14:02:17;;;;;;;2.97;2.50;;;11.70;99.90;;;;;;5053531;28;20171;-65
2021/04/12 14:04:47;;;;;;;3.90;2.80;;;11.30;99.90;;;;;;5033838;28;20198;-65
2021/04/12 14:07:17;;;;;;;3.03;2.40;;;10.70;99.90;;;;;;5034470;28;20195;-65
2021/04/12 14:09:51;;;;;;;2.67;2.00;;;10.70;99.90;;;;;;5053769;28;20175;-65
2021/04/12 14:12:30;;;;;;;3.23;2.40;;;10.70;99.90;;;;;;5053647;28;20175;-65
2021/04/12 14:15:08;;;;;;;2.03;1.93;;;10.00;99.90;;;;;;5053720;28;20210;-64
2021/04/12 14:17:39;;;;;;;3.07;2.77;;;9.20;99.90;;;;;;5053160;28;20260;-64
2021/04/12 14:20:28;;;;;;;3.27;2.80;;;8.60;99.90;;;;;;5053070;28;20179;-64
2021/04/12 14:22:58;;;;;;;3.27;2.70;;;8.30;99.90;;;;;;5053350;28;20300;-64
2021/04/12 14:25:31;;;;;;;3.03;2.83;;;8.10;99.90;;;;;;5053373;28;20171;-65